sensor_id;sensor_type;location;lat;lon;timestamp;P1;durP1;ratioP1;P2;durP2;ratioP2
69917;SDS011;57203;42.672;23.334;2023-07-24T00:00:19;11.9;;;7.4;;
69917;SDS011;57203;42.672;23.334;2023-07-24T00:01:19;12.0;;;7.2;;
69917;SDS011;57203;42.672;23.334;2023-07-24T00:02:19;12.7;;;8.3;;
69917;SDS011;57203;42.672;23.334;2023-07-24T00:03:19;12.7;;;6.9;;
69917;SDS011;57203;42.672;23.334;2023-07-24T00:04:20;10.2;;;7.4;;
69917;SDS011;57203;42.672;23.334;2023-07-24T00:06:20;13.6;;;7.2;;
69917;SDS011;57203;42.672;23.334;2023-07-24T00:07:20;11.1;;;7.0;;
69917;SDS011;57203;42.672;23.334;2023-07-24T00:08:21;10.4;;;7.4;;
69917;SDS011;57203;42.672;23.334;2023-07-24T00:09:21;13.0;;;6.9;;
69917;SDS011;57203;42.672;23.334;2023-07-24T00:10:21;10.7;;;7.4;;
69917;SDS011;57203;42.672;23.334;2023-07-24T00:11:21;10.5;;;7.3;;
69917;SDS011;57203;42.672;23.334;2023-07-24T00:12:22;10.9;;;7.5;;
69917;SDS011;57203;42.672;23.334;2023-07-24T00:13:22;12.0;;;6.9;;
69917;SDS011;57203;42.672;23.334;2023-07-24T00:14:22;12.0;;;7.1;;
69917;SDS011;57203;42.672;23.334;2023-07-24T00:15:22;11.4;;;6.9;;
69917;SDS011;57203;42.672;23.334;2023-07-24T00:16:23;11.6;;;7.7;;
69917;SDS011;57203;42.672;23.334;2023-07-24T00:17:23;11.6;;;7.2;;
69917;SDS011;57203;42.672;23.334;2023-07-24T00:18:23;11.6;;;7.4;;
69917;SDS011;57203;42.672;23.334;2023-07-24T00:20:24;11.8;;;6.6;;
69917;SDS011;57203;42.672;23.334;2023-07-24T00:21:24;9.4;;;7.4;;
69917;SDS011;57203;42.672;23.334;2023-07-24T00:22:24;11.2;;;7.2;;
69917;SDS011;57203;42.672;23.334;2023-07-24T00:23:24;10.8;;;6.7;;
69917;SDS011;57203;42.672;23.334;2023-07-24T00:24:25;10.7;;;7.3;;
69917;SDS011;57203;42.672;23.334;2023-07-24T00:25:25;11.0;;;6.8;;
69917;SDS011;57203;42.672;23.334;2023-07-24T00:26:25;10.7;;;7.0;;
69917;SDS011;57203;42.672;23.334;2023-07-24T00:27:25;10.8;;;7.2;;
69917;SDS011;57203;42.672;23.334;2023-07-24T00:28:25;8.9;;;6.5;;
69917;SDS011;57203;42.672;23.334;2023-07-24T00:29:26;8.9;;;6.8;;
69917;SDS011;57203;42.672;23.334;2023-07-24T00:30:26;10.5;;;7.4;;
69917;SDS011;57203;42.672;23.334;2023-07-24T00:31:26;11.7;;;6.9;;
69917;SDS011;57203;42.672;23.334;2023-07-24T00:32:26;11.1;;;7.2;;
69917;SDS011;57203;42.672;23.334;2023-07-24T00:33:27;11.1;;;7.0;;
69917;SDS011;57203;42.672;23.334;2023-07-24T00:34:27;10.3;;;7.6;;
69917;SDS011;57203;42.672;23.334;2023-07-24T00:35:27;11.8;;;7.2;;
69917;SDS011;57203;42.672;23.334;2023-07-24T00:36:27;11.9;;;6.8;;
69917;SDS011;57203;42.672;23.334;2023-07-24T00:37:27;10.3;;;7.8;;
69917;SDS011;57203;42.672;23.334;2023-07-24T00:38:28;12.5;;;7.0;;
69917;SDS011;57203;42.672;23.334;2023-07-24T00:39:28;14.7;;;6.9;;
69917;SDS011;57203;42.672;23.334;2023-07-24T00:40:28;9.9;;;7.0;;
69917;SDS011;57203;42.672;23.334;2023-07-24T00:43:29;11.2;;;6.8;;
69917;SDS011;57203;42.672;23.334;2023-07-24T00:44:29;11.4;;;7.0;;
69917;SDS011;57203;42.672;23.334;2023-07-24T00:45:29;11.4;;;6.7;;
69917;SDS011;57203;42.672;23.334;2023-07-24T00:46:30;10.2;;;7.0;;
69917;SDS011;57203;42.672;23.334;2023-07-24T00:47:30;11.8;;;7.3;;
69917;SDS011;57203;42.672;23.334;2023-07-24T00:48:30;10.2;;;7.1;;
69917;SDS011;57203;42.672;23.334;2023-07-24T00:49:30;13.2;;;7.8;;
69917;SDS011;57203;42.672;23.334;2023-07-24T00:50:31;13.2;;;6.6;;
69917;SDS011;57203;42.672;23.334;2023-07-24T00:51:31;10.9;;;7.7;;
69917;SDS011;57203;42.672;23.334;2023-07-24T00:52:31;13.2;;;7.2;;
69917;SDS011;57203;42.672;23.334;2023-07-24T00:53:31;10.9;;;6.9;;
69917;SDS011;57203;42.672;23.334;2023-07-24T00:54:32;10.9;;;6.8;;
69917;SDS011;57203;42.672;23.334;2023-07-24T00:55:32;10.6;;;7.4;;
69917;SDS011;57203;42.672;23.334;2023-07-24T00:58:33;12.1;;;6.7;;
69917;SDS011;57203;42.672;23.334;2023-07-24T00:59:33;11.2;;;7.0;;
69917;SDS011;57203;42.672;23.334;2023-07-24T01:00:33;10.0;;;6.8;;
69917;SDS011;57203;42.672;23.334;2023-07-24T01:01:33;9.8;;;7.0;;
69917;SDS011;57203;42.672;23.334;2023-07-24T01:02:34;12.3;;;7.4;;
69917;SDS011;57203;42.672;23.334;2023-07-24T01:03:34;12.3;;;7.0;;
69917;SDS011;57203;42.672;23.334;2023-07-24T01:04:34;10.6;;;6.7;;
69917;SDS011;57203;42.672;23.334;2023-07-24T01:05:34;10.8;;;7.3;;
69917;SDS011;57203;42.672;23.334;2023-07-24T01:06:34;10.8;;;6.8;;
69917;SDS011;57203;42.672;23.334;2023-07-24T01:07:35;11.0;;;7.6;;
69917;SDS011;57203;42.672;23.334;2023-07-24T01:08:35;11.0;;;7.8;;
69917;SDS011;57203;42.672;23.334;2023-07-24T01:09:35;12.2;;;7.3;;
69917;SDS011;57203;42.672;23.334;2023-07-24T01:11:37;11.2;;;6.7;;
69917;SDS011;57203;42.672;23.334;2023-07-24T01:12:38;9.8;;;8.1;;
69917;SDS011;57203;42.672;23.334;2023-07-24T01:13:37;12.3;;;8.6;;
69917;SDS011;57203;42.672;23.334;2023-07-24T01:14:38;14.6;;;7.6;;
69917;SDS011;57203;42.672;23.334;2023-07-24T01:15:38;12.6;;;7.3;;
69917;SDS011;57203;42.672;23.334;2023-07-24T01:16:37;10.3;;;7.4;;
69917;SDS011;57203;42.672;23.334;2023-07-24T01:18:37;10.8;;;7.3;;
69917;SDS011;57203;42.672;23.334;2023-07-24T01:19:40;10.1;;;7.9;;
69917;SDS011;57203;42.672;23.334;2023-07-24T01:20:40;9.9;;;7.2;;
69917;SDS011;57203;42.672;23.334;2023-07-24T01:21:42;9.9;;;7.4;;
69917;SDS011;57203;42.672;23.334;2023-07-24T01:22:39;10.8;;;7.0;;
69917;SDS011;57203;42.672;23.334;2023-07-24T01:23:44;12.2;;;7.4;;
69917;SDS011;57203;42.672;23.334;2023-07-24T01:24:44;10.9;;;7.6;;
69917;SDS011;57203;42.672;23.334;2023-07-24T01:26:39;13.6;;;7.2;;
69917;SDS011;57203;42.672;23.334;2023-07-24T01:27:40;11.6;;;7.3;;
69917;SDS011;57203;42.672;23.334;2023-07-24T01:28:40;12.0;;;7.1;;
69917;SDS011;57203;42.672;23.334;2023-07-24T01:29:40;12.7;;;7.2;;
69917;SDS011;57203;42.672;23.334;2023-07-24T01:30:40;11.3;;;7.3;;
69917;SDS011;57203;42.672;23.334;2023-07-24T01:31:41;10.8;;;7.0;;
69917;SDS011;57203;42.672;23.334;2023-07-24T01:32:41;12.9;;;6.7;;
69917;SDS011;57203;42.672;23.334;2023-07-24T01:33:41;10.8;;;7.8;;
69917;SDS011;57203;42.672;23.334;2023-07-24T01:34:41;11.6;;;7.7;;
69917;SDS011;57203;42.672;23.334;2023-07-24T01:35:42;11.0;;;7.2;;
69917;SDS011;57203;42.672;23.334;2023-07-24T01:37:43;12.0;;;6.8;;
69917;SDS011;57203;42.672;23.334;2023-07-24T01:38:42;10.3;;;7.1;;
69917;SDS011;57203;42.672;23.334;2023-07-24T01:39:43;10.3;;;7.5;;
69917;SDS011;57203;42.672;23.334;2023-07-24T01:40:43;11.2;;;7.2;;
69917;SDS011;57203;42.672;23.334;2023-07-24T01:41:43;12.3;;;7.7;;
69917;SDS011;57203;42.672;23.334;2023-07-24T01:42:43;11.2;;;6.9;;
69917;SDS011;57203;42.672;23.334;2023-07-24T01:43:44;9.9;;;7.7;;
69917;SDS011;57203;42.672;23.334;2023-07-24T01:44:44;10.7;;;7.2;;
69917;SDS011;57203;42.672;23.334;2023-07-24T01:45:44;10.7;;;7.7;;
69917;SDS011;57203;42.672;23.334;2023-07-24T01:46:44;12.1;;;7.0;;
69917;SDS011;57203;42.672;23.334;2023-07-24T01:48:45;11.7;;;7.9;;
69917;SDS011;57203;42.672;23.334;2023-07-24T01:49:45;11.3;;;7.7;;
69917;SDS011;57203;42.672;23.334;2023-07-24T01:50:45;12.3;;;7.6;;
69917;SDS011;57203;42.672;23.334;2023-07-24T01:51:46;12.4;;;7.9;;
69917;SDS011;57203;42.672;23.334;2023-07-24T01:52:46;12.8;;;7.8;;
69917;SDS011;57203;42.672;23.334;2023-07-24T01:53:46;11.8;;;7.6;;
69917;SDS011;57203;42.672;23.334;2023-07-24T01:54:46;11.8;;;7.3;;
69917;SDS011;57203;42.672;23.334;2023-07-24T01:55:46;13.1;;;7.1;;
69917;SDS011;57203;42.672;23.334;2023-07-24T01:56:47;11.7;;;7.3;;
69917;SDS011;57203;42.672;23.334;2023-07-24T01:57:47;11.2;;;6.9;;
69917;SDS011;57203;42.672;23.334;2023-07-24T01:58:47;10.7;;;7.5;;
69917;SDS011;57203;42.672;23.334;2023-07-24T01:59:47;10.6;;;7.8;;
69917;SDS011;57203;42.672;23.334;2023-07-24T02:00:48;12.3;;;7.9;;
69917;SDS011;57203;42.672;23.334;2023-07-24T02:02:48;12.5;;;7.5;;
69917;SDS011;57203;42.672;23.334;2023-07-24T02:03:48;12.5;;;7.7;;
69917;SDS011;57203;42.672;23.334;2023-07-24T02:04:49;11.1;;;7.1;;
69917;SDS011;57203;42.672;23.334;2023-07-24T02:05:49;12.3;;;7.4;;
69917;SDS011;57203;42.672;23.334;2023-07-24T02:06:49;12.1;;;7.7;;
69917;SDS011;57203;42.672;23.334;2023-07-24T02:07:49;12.1;;;7.6;;
69917;SDS011;57203;42.672;23.334;2023-07-24T02:08:50;11.0;;;6.9;;
69917;SDS011;57203;42.672;23.334;2023-07-24T02:09:50;11.9;;;7.5;;
69917;SDS011;57203;42.672;23.334;2023-07-24T02:10:50;11.8;;;6.9;;
69917;SDS011;57203;42.672;23.334;2023-07-24T02:11:50;10.2;;;7.1;;
69917;SDS011;57203;42.672;23.334;2023-07-24T02:12:51;12.5;;;7.5;;
69917;SDS011;57203;42.672;23.334;2023-07-24T02:13:51;10.5;;;6.9;;
69917;SDS011;57203;42.672;23.334;2023-07-24T02:14:51;11.9;;;7.0;;
69917;SDS011;57203;42.672;23.334;2023-07-24T02:15:51;11.9;;;6.3;;
69917;SDS011;57203;42.672;23.334;2023-07-24T02:16:51;10.0;;;6.8;;
69917;SDS011;57203;42.672;23.334;2023-07-24T02:17:52;9.3;;;6.9;;
69917;SDS011;57203;42.672;23.334;2023-07-24T02:18:52;11.2;;;7.1;;
69917;SDS011;57203;42.672;23.334;2023-07-24T02:19:52;9.9;;;6.8;;
69917;SDS011;57203;42.672;23.334;2023-07-24T02:20:52;11.7;;;6.9;;
69917;SDS011;57203;42.672;23.334;2023-07-24T02:22:53;11.5;;;7.0;;
69917;SDS011;57203;42.672;23.334;2023-07-24T02:23:53;10.3;;;6.5;;
69917;SDS011;57203;42.672;23.334;2023-07-24T02:24:53;10.0;;;6.6;;
69917;SDS011;57203;42.672;23.334;2023-07-24T02:26:54;9.5;;;6.3;;
69917;SDS011;57203;42.672;23.334;2023-07-24T02:27:54;9.5;;;7.1;;
69917;SDS011;57203;42.672;23.334;2023-07-24T02:28:54;10.6;;;6.7;;
69917;SDS011;57203;42.672;23.334;2023-07-24T02:30:55;10.6;;;7.4;;
69917;SDS011;57203;42.672;23.334;2023-07-24T02:31:56;10.0;;;7.2;;
69917;SDS011;57203;42.672;23.334;2023-07-24T02:32:55;10.0;;;6.7;;
69917;SDS011;57203;42.672;23.334;2023-07-24T02:33:55;10.8;;;6.9;;
69917;SDS011;57203;42.672;23.334;2023-07-24T02:34:56;12.9;;;7.5;;
69917;SDS011;57203;42.672;23.334;2023-07-24T02:35:56;9.7;;;7.2;;
69917;SDS011;57203;42.672;23.334;2023-07-24T02:36:56;9.7;;;6.8;;
69917;SDS011;57203;42.672;23.334;2023-07-24T02:37:57;10.2;;;7.3;;
69917;SDS011;57203;42.672;23.334;2023-07-24T02:39:57;10.5;;;7.6;;
69917;SDS011;57203;42.672;23.334;2023-07-24T02:40:57;12.3;;;7.4;;
69917;SDS011;57203;42.672;23.334;2023-07-24T02:41:57;10.8;;;7.2;;
69917;SDS011;57203;42.672;23.334;2023-07-24T02:42:58;10.8;;;7.9;;
69917;SDS011;57203;42.672;23.334;2023-07-24T02:43:58;11.5;;;7.6;;
69917;SDS011;57203;42.672;23.334;2023-07-24T02:44:58;11.3;;;7.3;;
69917;SDS011;57203;42.672;23.334;2023-07-24T02:46:00;10.8;;;7.1;;
69917;SDS011;57203;42.672;23.334;2023-07-24T02:46:59;11.4;;;7.8;;
69917;SDS011;57203;42.672;23.334;2023-07-24T02:47:59;12.7;;;8.6;;
69917;SDS011;57203;42.672;23.334;2023-07-24T02:48:59;12.2;;;7.5;;
69917;SDS011;57203;42.672;23.334;2023-07-24T02:51:00;11.2;;;7.7;;
69917;SDS011;57203;42.672;23.334;2023-07-24T02:52:00;11.2;;;7.3;;
69917;SDS011;57203;42.672;23.334;2023-07-24T02:54:00;14.0;;;8.3;;
69917;SDS011;57203;42.672;23.334;2023-07-24T02:55:00;14.0;;;7.6;;
69917;SDS011;57203;42.672;23.334;2023-07-24T02:56:01;11.2;;;7.4;;
69917;SDS011;57203;42.672;23.334;2023-07-24T02:58:01;12.6;;;7.5;;
69917;SDS011;57203;42.672;23.334;2023-07-24T02:59:01;12.4;;;7.7;;
69917;SDS011;57203;42.672;23.334;2023-07-24T03:00:02;12.1;;;7.9;;
69917;SDS011;57203;42.672;23.334;2023-07-24T03:01:02;12.1;;;7.4;;
69917;SDS011;57203;42.672;23.334;2023-07-24T03:02:02;12.3;;;7.7;;
69917;SDS011;57203;42.672;23.334;2023-07-24T03:03:03;12.1;;;7.4;;
69917;SDS011;57203;42.672;23.334;2023-07-24T03:04:03;12.6;;;7.1;;
69917;SDS011;57203;42.672;23.334;2023-07-24T03:05:03;10.1;;;7.3;;
69917;SDS011;57203;42.672;23.334;2023-07-24T03:06:03;10.7;;;7.2;;
69917;SDS011;57203;42.672;23.334;2023-07-24T03:07:03;10.7;;;7.6;;
69917;SDS011;57203;42.672;23.334;2023-07-24T03:08:04;11.2;;;7.3;;
69917;SDS011;57203;42.672;23.334;2023-07-24T03:09:04;11.5;;;7.6;;
69917;SDS011;57203;42.672;23.334;2023-07-24T03:10:04;13.3;;;6.9;;
69917;SDS011;57203;42.672;23.334;2023-07-24T03:11:04;10.8;;;7.7;;
69917;SDS011;57203;42.672;23.334;2023-07-24T03:13:05;12.3;;;7.9;;
69917;SDS011;57203;42.672;23.334;2023-07-24T03:14:05;11.8;;;7.7;;
69917;SDS011;57203;42.672;23.334;2023-07-24T03:15:06;11.5;;;7.3;;
69917;SDS011;57203;42.672;23.334;2023-07-24T03:16:05;11.7;;;7.7;;
69917;SDS011;57203;42.672;23.334;2023-07-24T03:17:06;10.5;;;7.2;;
69917;SDS011;57203;42.672;23.334;2023-07-24T03:18:06;13.3;;;7.8;;
69917;SDS011;57203;42.672;23.334;2023-07-24T03:19:06;13.3;;;7.3;;
69917;SDS011;57203;42.672;23.334;2023-07-24T03:20:08;10.8;;;7.8;;
69917;SDS011;57203;42.672;23.334;2023-07-24T03:21:07;11.1;;;7.6;;
69917;SDS011;57203;42.672;23.334;2023-07-24T03:22:07;11.7;;;7.9;;
69917;SDS011;57203;42.672;23.334;2023-07-24T03:23:07;12.0;;;7.4;;
69917;SDS011;57203;42.672;23.334;2023-07-24T03:24:07;12.3;;;8.0;;
69917;SDS011;57203;42.672;23.334;2023-07-24T03:26:08;12.9;;;7.7;;
69917;SDS011;57203;42.672;23.334;2023-07-24T03:27:08;11.6;;;7.2;;
69917;SDS011;57203;42.672;23.334;2023-07-24T03:28:08;11.3;;;7.1;;
69917;SDS011;57203;42.672;23.334;2023-07-24T03:29:08;10.9;;;7.5;;
69917;SDS011;57203;42.672;23.334;2023-07-24T03:30:09;11.1;;;7.7;;
69917;SDS011;57203;42.672;23.334;2023-07-24T03:31:09;11.6;;;7.5;;
69917;SDS011;57203;42.672;23.334;2023-07-24T03:32:09;13.0;;;7.2;;
69917;SDS011;57203;42.672;23.334;2023-07-24T03:33:09;11.7;;;7.7;;
69917;SDS011;57203;42.672;23.334;2023-07-24T03:34:10;11.1;;;8.4;;
69917;SDS011;57203;42.672;23.334;2023-07-24T03:35:10;13.2;;;8.0;;
69917;SDS011;57203;42.672;23.334;2023-07-24T03:36:10;14.0;;;8.1;;
69917;SDS011;57203;42.672;23.334;2023-07-24T03:37:11;12.7;;;7.8;;
69917;SDS011;57203;42.672;23.334;2023-07-24T03:38:10;12.2;;;7.0;;
69917;SDS011;57203;42.672;23.334;2023-07-24T03:39:11;11.2;;;7.2;;
69917;SDS011;57203;42.672;23.334;2023-07-24T03:40:11;10.8;;;7.9;;
69917;SDS011;57203;42.672;23.334;2023-07-24T03:41:11;12.0;;;7.7;;
69917;SDS011;57203;42.672;23.334;2023-07-24T03:42:11;12.9;;;8.2;;
69917;SDS011;57203;42.672;23.334;2023-07-24T03:43:12;12.1;;;7.8;;
69917;SDS011;57203;42.672;23.334;2023-07-24T03:44:12;12.6;;;7.5;;
69917;SDS011;57203;42.672;23.334;2023-07-24T03:45:12;11.2;;;7.8;;
69917;SDS011;57203;42.672;23.334;2023-07-24T03:46:12;10.2;;;7.6;;
69917;SDS011;57203;42.672;23.334;2023-07-24T03:47:13;10.3;;;7.4;;
69917;SDS011;57203;42.672;23.334;2023-07-24T03:48:13;11.7;;;7.3;;
69917;SDS011;57203;42.672;23.334;2023-07-24T03:49:13;11.7;;;8.0;;
69917;SDS011;57203;42.672;23.334;2023-07-24T03:50:13;12.2;;;7.2;;
69917;SDS011;57203;42.672;23.334;2023-07-24T03:51:13;12.5;;;8.0;;
69917;SDS011;57203;42.672;23.334;2023-07-24T03:52:14;12.7;;;7.0;;
69917;SDS011;57203;42.672;23.334;2023-07-24T03:53:14;10.7;;;7.5;;
69917;SDS011;57203;42.672;23.334;2023-07-24T03:54:14;11.5;;;7.4;;
69917;SDS011;57203;42.672;23.334;2023-07-24T03:55:14;11.3;;;7.5;;
69917;SDS011;57203;42.672;23.334;2023-07-24T03:57:15;10.8;;;7.6;;
69917;SDS011;57203;42.672;23.334;2023-07-24T03:58:15;15.0;;;8.0;;
69917;SDS011;57203;42.672;23.334;2023-07-24T03:59:15;11.2;;;7.6;;
69917;SDS011;57203;42.672;23.334;2023-07-24T04:00:16;12.7;;;8.4;;
69917;SDS011;57203;42.672;23.334;2023-07-24T04:01:16;14.8;;;8.2;;
69917;SDS011;57203;42.672;23.334;2023-07-24T04:02:16;14.6;;;7.7;;
69917;SDS011;57203;42.672;23.334;2023-07-24T04:03:17;12.2;;;7.5;;
69917;SDS011;57203;42.672;23.334;2023-07-24T04:04:17;10.6;;;8.0;;
69917;SDS011;57203;42.672;23.334;2023-07-24T04:06:17;12.6;;;8.2;;
69917;SDS011;57203;42.672;23.334;2023-07-24T04:07:17;14.3;;;7.8;;
69917;SDS011;57203;42.672;23.334;2023-07-24T04:08:17;15.5;;;8.0;;
69917;SDS011;57203;42.672;23.334;2023-07-24T04:09:18;11.7;;;9.0;;
69917;SDS011;57203;42.672;23.334;2023-07-24T04:10:18;24.4;;;16.6;;
69917;SDS011;57203;42.672;23.334;2023-07-24T04:11:18;24.4;;;12.3;;
69917;SDS011;57203;42.672;23.334;2023-07-24T04:12:18;19.7;;;11.8;;
69917;SDS011;57203;42.672;23.334;2023-07-24T04:13:19;19.2;;;12.5;;
69917;SDS011;57203;42.672;23.334;2023-07-24T04:14:19;19.2;;;14.4;;
69917;SDS011;57203;42.672;23.334;2023-07-24T04:15:19;22.9;;;12.6;;
69917;SDS011;57203;42.672;23.334;2023-07-24T04:16:19;18.3;;;12.2;;
69917;SDS011;57203;42.672;23.334;2023-07-24T04:17:20;20.0;;;11.3;;
69917;SDS011;57203;42.672;23.334;2023-07-24T04:18:20;18.3;;;11.6;;
69917;SDS011;57203;42.672;23.334;2023-07-24T04:19:20;18.7;;;11.1;;
69917;SDS011;57203;42.672;23.334;2023-07-24T04:20:20;18.7;;;11.4;;
69917;SDS011;57203;42.672;23.334;2023-07-24T04:21:22;19.7;;;9.8;;
69917;SDS011;57203;42.672;23.334;2023-07-24T04:22:21;17.1;;;9.2;;
69917;SDS011;57203;42.672;23.334;2023-07-24T04:23:21;14.3;;;10.1;;
69917;SDS011;57203;42.672;23.334;2023-07-24T04:24:21;18.0;;;10.2;;
69917;SDS011;57203;42.672;23.334;2023-07-24T04:25:21;17.5;;;9.9;;
69917;SDS011;57203;42.672;23.334;2023-07-24T04:26:22;15.5;;;9.6;;
69917;SDS011;57203;42.672;23.334;2023-07-24T04:27:22;15.1;;;9.9;;
69917;SDS011;57203;42.672;23.334;2023-07-24T04:28:22;16.9;;;9.8;;
69917;SDS011;57203;42.672;23.334;2023-07-24T04:29:23;16.2;;;9.9;;
69917;SDS011;57203;42.672;23.334;2023-07-24T04:30:23;18.7;;;9.6;;
69917;SDS011;57203;42.672;23.334;2023-07-24T04:31:23;15.6;;;9.3;;
69917;SDS011;57203;42.672;23.334;2023-07-24T04:32:23;14.6;;;9.1;;
69917;SDS011;57203;42.672;23.334;2023-07-24T04:34:24;15.5;;;9.0;;
69917;SDS011;57203;42.672;23.334;2023-07-24T04:35:24;16.4;;;9.2;;
69917;SDS011;57203;42.672;23.334;2023-07-24T04:37:24;15.6;;;9.4;;
69917;SDS011;57203;42.672;23.334;2023-07-24T04:38:25;15.9;;;9.6;;
69917;SDS011;57203;42.672;23.334;2023-07-24T04:39:26;17.4;;;9.9;;
69917;SDS011;57203;42.672;23.334;2023-07-24T04:40:25;20.5;;;9.3;;
69917;SDS011;57203;42.672;23.334;2023-07-24T04:41:25;14.1;;;9.8;;
69917;SDS011;57203;42.672;23.334;2023-07-24T04:42:25;14.7;;;9.0;;
69917;SDS011;57203;42.672;23.334;2023-07-24T04:43:26;16.6;;;9.9;;
69917;SDS011;57203;42.672;23.334;2023-07-24T04:44:26;17.8;;;9.5;;
69917;SDS011;57203;42.672;23.334;2023-07-24T04:45:26;15.8;;;9.9;;
69917;SDS011;57203;42.672;23.334;2023-07-24T04:46:26;15.8;;;10.3;;
69917;SDS011;57203;42.672;23.334;2023-07-24T04:47:27;16.7;;;9.8;;
69917;SDS011;57203;42.672;23.334;2023-07-24T04:49:28;16.3;;;9.9;;
69917;SDS011;57203;42.672;23.334;2023-07-24T04:50:27;17.2;;;10.4;;
69917;SDS011;57203;42.672;23.334;2023-07-24T04:51:28;16.7;;;9.7;;
69917;SDS011;57203;42.672;23.334;2023-07-24T04:52:28;15.6;;;9.1;;
69917;SDS011;57203;42.672;23.334;2023-07-24T04:53:28;16.4;;;8.5;;
69917;SDS011;57203;42.672;23.334;2023-07-24T04:54:28;15.0;;;8.9;;
69917;SDS011;57203;42.672;23.334;2023-07-24T04:55:29;15.5;;;8.5;;
69917;SDS011;57203;42.672;23.334;2023-07-24T04:56:29;15.3;;;8.4;;
69917;SDS011;57203;42.672;23.334;2023-07-24T04:57:29;15.7;;;8.5;;
69917;SDS011;57203;42.672;23.334;2023-07-24T04:58:29;15.7;;;8.2;;
69917;SDS011;57203;42.672;23.334;2023-07-24T04:59:30;13.9;;;9.0;;
69917;SDS011;57203;42.672;23.334;2023-07-24T05:00:30;15.2;;;8.2;;
69917;SDS011;57203;42.672;23.334;2023-07-24T05:01:30;15.0;;;8.8;;
69917;SDS011;57203;42.672;23.334;2023-07-24T05:02:30;18.6;;;8.7;;
69917;SDS011;57203;42.672;23.334;2023-07-24T05:04:31;14.4;;;8.3;;
69917;SDS011;57203;42.672;23.334;2023-07-24T05:05:31;16.0;;;8.8;;
69917;SDS011;57203;42.672;23.334;2023-07-24T05:06:31;14.8;;;8.6;;
69917;SDS011;57203;42.672;23.334;2023-07-24T05:07:32;14.5;;;8.8;;
69917;SDS011;57203;42.672;23.334;2023-07-24T05:08:32;13.9;;;8.7;;
69917;SDS011;57203;42.672;23.334;2023-07-24T05:09:32;15.2;;;8.4;;
69917;SDS011;57203;42.672;23.334;2023-07-24T05:10:34;13.9;;;8.5;;
69917;SDS011;57203;42.672;23.334;2023-07-24T05:11:32;14.7;;;7.9;;
69917;SDS011;57203;42.672;23.334;2023-07-24T05:12:33;12.6;;;8.9;;
69917;SDS011;57203;42.672;23.334;2023-07-24T05:13:33;14.1;;;8.7;;
69917;SDS011;57203;42.672;23.334;2023-07-24T05:14:33;14.4;;;7.9;;
69917;SDS011;57203;42.672;23.334;2023-07-24T05:15:33;13.7;;;8.6;;
69917;SDS011;57203;42.672;23.334;2023-07-24T05:16:34;14.7;;;8.8;;
69917;SDS011;57203;42.672;23.334;2023-07-24T05:17:34;14.5;;;7.9;;
69917;SDS011;57203;42.672;23.334;2023-07-24T05:18:34;12.9;;;8.2;;
69917;SDS011;57203;42.672;23.334;2023-07-24T05:19:34;16.4;;;8.1;;
69917;SDS011;57203;42.672;23.334;2023-07-24T05:20:35;13.2;;;8.0;;
69917;SDS011;57203;42.672;23.334;2023-07-24T05:21:35;14.3;;;8.1;;
69917;SDS011;57203;42.672;23.334;2023-07-24T05:22:35;15.6;;;7.8;;
69917;SDS011;57203;42.672;23.334;2023-07-24T05:23:35;12.7;;;8.5;;
69917;SDS011;57203;42.672;23.334;2023-07-24T05:24:36;15.3;;;7.8;;
69917;SDS011;57203;42.672;23.334;2023-07-24T05:25:36;14.4;;;8.7;;
69917;SDS011;57203;42.672;23.334;2023-07-24T05:26:36;13.6;;;8.2;;
69917;SDS011;57203;42.672;23.334;2023-07-24T05:27:36;12.9;;;8.3;;
69917;SDS011;57203;42.672;23.334;2023-07-24T05:28:37;15.3;;;8.1;;
69917;SDS011;57203;42.672;23.334;2023-07-24T05:29:37;12.4;;;7.9;;
69917;SDS011;57203;42.672;23.334;2023-07-24T05:30:37;12.2;;;7.8;;
69917;SDS011;57203;42.672;23.334;2023-07-24T05:31:37;11.9;;;8.7;;
69917;SDS011;57203;42.672;23.334;2023-07-24T05:32:38;18.4;;;9.0;;
69917;SDS011;57203;42.672;23.334;2023-07-24T05:33:38;15.4;;;7.8;;
69917;SDS011;57203;42.672;23.334;2023-07-24T05:34:38;14.1;;;8.3;;
69917;SDS011;57203;42.672;23.334;2023-07-24T05:35:38;13.3;;;9.0;;
69917;SDS011;57203;42.672;23.334;2023-07-24T05:36:40;16.9;;;8.4;;
69917;SDS011;57203;42.672;23.334;2023-07-24T05:37:39;14.4;;;8.5;;
69917;SDS011;57203;42.672;23.334;2023-07-24T05:38:39;13.5;;;8.2;;
69917;SDS011;57203;42.672;23.334;2023-07-24T05:39:39;15.7;;;8.5;;
69917;SDS011;57203;42.672;23.334;2023-07-24T05:40:40;16.1;;;9.0;;
69917;SDS011;57203;42.672;23.334;2023-07-24T05:41:40;14.3;;;8.1;;
69917;SDS011;57203;42.672;23.334;2023-07-24T05:42:40;14.2;;;8.9;;
69917;SDS011;57203;42.672;23.334;2023-07-24T05:43:40;15.3;;;8.8;;
69917;SDS011;57203;42.672;23.334;2023-07-24T05:44:41;14.4;;;9.1;;
69917;SDS011;57203;42.672;23.334;2023-07-24T05:45:41;15.3;;;8.5;;
69917;SDS011;57203;42.672;23.334;2023-07-24T05:47:41;14.8;;;8.7;;
69917;SDS011;57203;42.672;23.334;2023-07-24T05:48:42;14.6;;;8.8;;
69917;SDS011;57203;42.672;23.334;2023-07-24T05:49:42;15.7;;;7.9;;
69917;SDS011;57203;42.672;23.334;2023-07-24T05:50:42;14.4;;;8.8;;
69917;SDS011;57203;42.672;23.334;2023-07-24T05:51:42;15.2;;;8.5;;
69917;SDS011;57203;42.672;23.334;2023-07-24T05:52:43;15.6;;;8.3;;
69917;SDS011;57203;42.672;23.334;2023-07-24T05:53:43;15.6;;;8.4;;
69917;SDS011;57203;42.672;23.334;2023-07-24T05:54:43;15.4;;;8.1;;
69917;SDS011;57203;42.672;23.334;2023-07-24T05:55:43;14.3;;;8.4;;
69917;SDS011;57203;42.672;23.334;2023-07-24T05:56:44;13.7;;;7.9;;
69917;SDS011;57203;42.672;23.334;2023-07-24T05:57:44;12.8;;;8.3;;
69917;SDS011;57203;42.672;23.334;2023-07-24T05:58:44;15.4;;;8.1;;
69917;SDS011;57203;42.672;23.334;2023-07-24T05:59:44;14.7;;;8.7;;
69917;SDS011;57203;42.672;23.334;2023-07-24T06:00:45;15.8;;;8.0;;
69917;SDS011;57203;42.672;23.334;2023-07-24T06:01:45;13.2;;;8.5;;
69917;SDS011;57203;42.672;23.334;2023-07-24T06:02:45;15.5;;;7.8;;
69917;SDS011;57203;42.672;23.334;2023-07-24T06:03:45;12.0;;;8.7;;
69917;SDS011;57203;42.672;23.334;2023-07-24T06:04:46;14.3;;;8.3;;
69917;SDS011;57203;42.672;23.334;2023-07-24T06:05:46;14.5;;;8.2;;
69917;SDS011;57203;42.672;23.334;2023-07-24T06:06:46;14.5;;;7.9;;
69917;SDS011;57203;42.672;23.334;2023-07-24T06:07:47;14.3;;;8.1;;
69917;SDS011;57203;42.672;23.334;2023-07-24T06:08:47;14.3;;;7.8;;
69917;SDS011;57203;42.672;23.334;2023-07-24T06:09:47;12.9;;;7.6;;
69917;SDS011;57203;42.672;23.334;2023-07-24T06:10:47;13.6;;;8.2;;
69917;SDS011;57203;42.672;23.334;2023-07-24T06:11:47;13.4;;;7.7;;
69917;SDS011;57203;42.672;23.334;2023-07-24T06:12:48;13.5;;;8.4;;
69917;SDS011;57203;42.672;23.334;2023-07-24T06:13:48;13.8;;;8.9;;
69917;SDS011;57203;42.672;23.334;2023-07-24T06:14:48;15.1;;;8.8;;
69917;SDS011;57203;42.672;23.334;2023-07-24T06:15:49;13.2;;;7.2;;
69917;SDS011;57203;42.672;23.334;2023-07-24T06:16:49;13.2;;;7.6;;
69917;SDS011;57203;42.672;23.334;2023-07-24T06:17:49;11.9;;;8.0;;
69917;SDS011;57203;42.672;23.334;2023-07-24T06:18:49;14.9;;;7.9;;
69917;SDS011;57203;42.672;23.334;2023-07-24T06:19:49;14.5;;;7.8;;
69917;SDS011;57203;42.672;23.334;2023-07-24T06:20:52;13.2;;;7.5;;
69917;SDS011;57203;42.672;23.334;2023-07-24T06:21:50;12.4;;;8.0;;
69917;SDS011;57203;42.672;23.334;2023-07-24T06:22:50;15.1;;;8.1;;
69917;SDS011;57203;42.672;23.334;2023-07-24T06:23:50;14.9;;;7.4;;
69917;SDS011;57203;42.672;23.334;2023-07-24T06:24:51;12.0;;;8.1;;
69917;SDS011;57203;42.672;23.334;2023-07-24T06:25:51;15.0;;;7.7;;
69917;SDS011;57203;42.672;23.334;2023-07-24T06:26:51;13.3;;;7.4;;
69917;SDS011;57203;42.672;23.334;2023-07-24T06:27:52;12.1;;;7.7;;
69917;SDS011;57203;42.672;23.334;2023-07-24T06:28:52;13.7;;;8.1;;
69917;SDS011;57203;42.672;23.334;2023-07-24T06:29:52;14.6;;;7.5;;
69917;SDS011;57203;42.672;23.334;2023-07-24T06:30:52;12.0;;;7.8;;